Time;durP1;ratioP1;P1;durP2;ratioP2;P2;SDS_P1;SDS_P2;PMS_P1;PMS_P2;Temp;Humidity;BMP_temperature;BMP_pressure;BME280_temperature;BME280_humidity;BME280_pressure;Samples;Min_cycle;Max_cycle;Signal;HPM_P1;HPM_P2
2021/04/24 00:01:25;;;;;;;16.20;6.67;;;;;;;4.58;83.51;96971.97;5058062;28;20605;-71
2021/04/24 00:03:51;;;;;;;16.90;6.80;;;;;;;4.51;83.56;96974.25;5058201;28;20204;-71
2021/04/24 00:06:17;;;;;;;13.70;6.77;;;;;;;4.34;83.83;96969.56;5057528;28;20738;-72
2021/04/24 00:08:43;;;;;;;15.27;6.37;;;;;;;4.27;84.07;96972.75;5057816;28;20231;-71
2021/04/24 00:11:09;;;;;;;15.43;6.20;;;;;;;4.25;85.13;96969.44;5057939;28;21231;-71
2021/04/24 00:13:36;;;;;;;13.07;6.03;;;;;;;4.31;82.88;96969.78;5057749;28;20197;-71
2021/04/24 00:16:02;;;;;;;13.13;6.70;;;;;;;4.41;82.37;96969.88;5057497;28;20203;-71
2021/04/24 00:18:28;;;;;;;15.67;6.23;;;;;;;4.49;82.33;96967.50;5057339;28;20255;-71
2021/04/24 00:20:54;;;;;;;17.13;6.10;;;;;;;4.41;82.46;96960.28;5058081;28;20204;-71
2021/04/24 00:23:20;;;;;;;13.13;6.00;;;;;;;4.32;83.55;96954.97;5057545;28;20223;-71
2021/04/24 00:25:46;;;;;;;14.67;6.07;;;;;;;4.34;82.64;96953.03;5057227;28;20720;-71
2021/04/24 00:28:13;;;;;;;15.27;7.20;;;;;;;4.23;83.97;96950.47;5058208;28;20260;-71
2021/04/24 00:30:40;;;;;;;13.90;6.50;;;;;;;4.34;84.05;96951.28;5057102;28;20292;-71
2021/04/24 00:33:07;;;;;;;15.00;6.47;;;;;;;4.13;83.16;96948.72;5057561;28;20197;-71
2021/04/24 00:35:33;;;;;;;16.10;6.23;;;;;;;4.12;83.44;96947.06;5057369;28;20254;-71
2021/04/24 00:37:59;;;;;;;16.27;6.47;;;;;;;4.06;84.31;96948.38;5056891;28;20234;-71
2021/04/24 00:40:25;;;;;;;17.47;6.50;;;;;;;4.14;84.27;96951.22;5057501;28;20204;-71
2021/04/24 00:42:52;;;;;;;14.43;5.80;;;;;;;4.21;82.87;96948.94;5054591;28;20204;-71
2021/04/24 00:45:23;;;;;;;16.90;6.10;;;;;;;3.92;83.38;96935.59;5056582;28;20200;-71
2021/04/24 00:47:50;;;;;;;17.07;6.73;;;;;;;3.97;85.35;96943.88;5056978;28;20228;-71
2021/04/24 00:50:18;;;;;;;13.77;6.83;;;;;;;3.97;85.67;96943.88;5057383;28;20205;-71
2021/04/24 00:52:44;;;;;;;15.07;6.33;;;;;;;3.71;85.66;96939.84;5057211;28;20208;-72
2021/04/24 00:55:11;;;;;;;18.97;6.87;;;;;;;3.80;84.88;96926.09;5056387;28;20283;-71
2021/04/24 00:57:37;;;;;;;12.80;6.00;;;;;;;3.71;85.89;96929.44;5056839;28;20220;-71
2021/04/24 01:00:05;;;;;;;17.50;7.10;;;;;;;3.78;86.92;96917.59;5057350;28;20220;-71
2021/04/24 01:02:32;;;;;;;19.30;6.67;;;;;;;3.84;86.27;96922.31;5056554;28;20208;-71
2021/04/24 01:04:59;;;;;;;19.67;6.97;;;;;;;3.83;86.14;96918.06;5057096;28;20212;-71
2021/04/24 01:07:25;;;;;;;15.10;6.43;;;;;;;3.82;85.80;96916.41;5056587;28;20258;-71
2021/04/24 01:09:51;;;;;;;16.60;5.70;;;;;;;3.70;83.59;96914.75;5057093;28;20204;-71
2021/04/24 01:12:17;;;;;;;12.57;6.53;;;;;;;3.64;85.51;96909.19;5056593;28;20211;-71
2021/04/24 01:14:43;;;;;;;17.93;6.40;;;;;;;3.67;86.09;96906.34;5056028;28;20209;-71
2021/04/24 01:17:09;;;;;;;13.53;6.33;;;;;;;3.66;86.47;96909.91;5055782;28;20224;-71
2021/04/24 01:19:36;;;;;;;17.50;7.13;;;;;;;3.72;85.35;96912.03;5056370;28;20274;-71
2021/04/24 01:22:08;;;;;;;12.93;5.77;;;;;;;3.37;84.17;96906.09;5056859;28;21102;-71
2021/04/24 01:24:35;;;;;;;15.97;6.83;;;;;;;3.48;85.28;96907.91;5056710;28;20333;-71
2021/04/24 01:27:01;;;;;;;14.20;6.33;;;;;;;3.35;85.85;96901.97;5056200;28;20213;-71
2021/04/24 01:29:28;;;;;;;19.63;6.50;;;;;;;3.28;87.29;96901.59;5056304;28;20193;-71
2021/04/24 01:31:54;;;;;;;17.40;6.70;;;;;;;3.30;87.49;96898.88;5056853;28;21330;-71
2021/04/24 01:34:20;;;;;;;16.50;6.70;;;;;;;3.26;88.16;96897.44;5056156;28;20201;-72
2021/04/24 01:36:46;;;;;;;15.57;6.97;;;;;;;3.32;88.25;96891.78;5056624;28;20200;-71
2021/04/24 01:39:13;;;;;;;17.13;6.83;;;;;;;2.98;87.52;96892.69;5056932;28;20228;-71
2021/04/24 01:41:39;;;;;;;18.37;6.63;;;;;;;2.84;89.77;96905.06;5054234;28;20270;-72
2021/04/24 01:44:06;;;;;;;14.43;6.60;;;;;;;2.98;89.05;96897.88;5055605;28;20679;-71
2021/04/24 01:46:32;;;;;;;14.70;6.27;;;;;;;2.95;88.82;96903.31;5056411;28;20219;-71
2021/04/24 01:48:58;;;;;;;13.57;6.80;;;;;;;2.93;89.34;96899.16;5056567;28;20248;-71
2021/04/24 01:51:24;;;;;;;17.77;6.73;;;;;;;2.81;89.13;96903.50;5056465;28;20258;-71
2021/04/24 01:53:53;;;;;;;14.87;7.20;;;;;;;2.92;88.14;96900.94;5056370;28;20277;-71
2021/04/24 01:56:20;;;;;;;16.47;6.57;;;;;;;2.91;88.40;96904.47;5056131;28;20223;-71
2021/04/24 01:58:46;;;;;;;14.70;6.03;;;;;;;2.96;87.13;96904.16;5055943;28;20224;-71
2021/04/24 02:01:13;;;;;;;13.60;6.10;;;;;;;2.77;87.97;96896.06;5056359;28;20200;-71
2021/04/24 02:03:39;;;;;;;16.17;6.80;;;;;;;2.96;87.93;96899.75;5056147;28;20736;-71
2021/04/24 02:06:05;;;;;;;14.87;6.20;;;;;;;2.93;87.29;96894.81;5055672;28;20196;-71
2021/04/24 02:08:36;;;;;;;14.73;6.00;;;;;;;2.96;87.46;96888.53;5056366;28;20216;-72
2021/04/24 02:11:04;;;;;;;14.90;6.13;;;;;;;2.88;88.29;96890.84;5056585;28;20212;-72
2021/04/24 02:13:33;;;;;;;17.47;6.50;;;;;;;3.00;87.78;96895.16;5055884;28;20204;-71
2021/04/24 02:15:59;;;;;;;13.40;5.97;;;;;;;3.03;87.52;96894.00;5055567;28;20776;-71
2021/04/24 02:18:26;;;;;;;11.93;6.03;;;;;;;2.95;86.35;96886.88;5056172;28;20686;-71
2021/04/24 02:20:52;;;;;;;14.70;5.93;;;;;;;2.96;85.21;96891.97;5056262;28;20258;-71
2021/04/24 02:23:19;;;;;;;14.00;5.93;;;;;;;2.93;86.65;96897.41;5056383;28;20212;-71
2021/04/24 02:25:46;;;;;;;13.13;6.17;;;;;;;2.96;86.94;96888.53;5055414;28;21121;-71
2021/04/24 02:28:12;;;;;;;16.07;6.33;;;;;;;2.98;87.40;96890.09;5055744;28;20232;-71
2021/04/24 02:30:40;;;;;;;17.40;6.67;;;;;;;2.96;86.91;96886.75;5055635;28;20330;-71
2021/04/24 02:33:07;;;;;;;15.40;6.20;;;;;;;2.92;86.81;96882.72;5055650;28;20201;-71
2021/04/24 02:35:42;;;;;;;13.80;6.10;;;;;;;2.83;86.86;96887.81;5054995;28;20205;-71
2021/04/24 02:38:08;;;;;;;17.77;6.80;;;;;;;2.81;87.17;96889.69;5055140;28;20219;-71
2021/04/24 02:40:34;;;;;;;15.47;6.57;;;;;;;2.82;88.24;96881.75;5056327;28;20255;-71
2021/04/24 02:43:00;;;;;;;14.37;6.07;;;;;;;2.82;88.48;96888.75;5057400;28;20196;-71
2021/04/24 02:45:26;;;;;;;16.97;6.53;;;;;;;2.66;87.76;96880.41;5057941;28;20244;-71
2021/04/24 02:47:53;;;;;;;14.93;5.83;;;;;;;2.65;87.34;96879.59;5059713;28;20239;-71
2021/04/24 02:50:20;;;;;;;13.47;6.33;;;;;;;2.58;88.00;96878.41;5056661;28;20200;-71
2021/04/24 02:52:46;;;;;;;15.93;6.20;;;;;;;2.45;88.57;96877.63;5059412;28;20578;-71
2021/04/24 02:55:14;;;;;;;17.67;6.07;;;;;;;2.32;88.90;96867.38;5058341;28;20251;-70
2021/04/24 02:57:41;;;;;;;16.50;6.57;;;;;;;2.34;88.62;96875.91;5059953;28;20687;-71
2021/04/24 03:00:09;;;;;;;13.00;6.30;;;;;;;2.21;89.85;96873.38;5058962;28;20224;-71
2021/04/24 03:02:35;;;;;;;19.33;6.70;;;;;;;2.37;89.67;96879.13;5059256;28;21156;-71
2021/04/24 03:05:07;;;;;;;15.07;6.33;;;;;;;2.00;89.42;96876.72;5059318;28;20200;-71
2021/04/24 03:07:33;;;;;;;13.33;6.00;;;;;;;2.17;89.23;96873.72;5059187;28;20282;-71
2021/04/24 03:09:59;;;;;;;13.33;6.47;;;;;;;2.06;90.39;96876.25;5056169;28;20300;-71
2021/04/24 03:12:25;;;;;;;15.70;7.10;;;;;;;2.12;91.21;96883.63;5058922;28;20239;-72
2021/04/24 03:14:51;;;;;;;14.70;6.63;;;;;;;2.32;90.51;96889.03;5059407;28;20369;-71
2021/04/24 03:17:17;;;;;;;16.53;7.20;;;;;;;2.01;91.42;96886.16;5057997;28;20248;-72
2021/04/24 03:19:43;;;;;;;20.53;7.13;;;;;;;2.16;89.82;96885.06;5059064;28;20280;-71
2021/04/24 03:22:09;;;;;;;18.83;7.63;;;;;;;2.21;89.95;96888.16;5058780;28;20537;-71
2021/04/24 03:24:35;;;;;;;16.23;7.00;;;;;;;2.36;90.11;96884.44;5058702;28;20199;-72
2021/04/24 03:27:01;;;;;;;13.03;6.13;;;;;;;2.35;88.01;96885.38;5057890;28;20237;-71
2021/04/24 03:29:27;;;;;;;13.77;6.33;;;;;;;2.29;88.77;96885.81;5059517;28;20253;-71
2021/04/24 03:31:53;;;;;;;15.67;6.43;;;;;;;2.35;89.07;96885.38;5058807;28;20231;-71
2021/04/24 03:34:19;;;;;;;21.83;6.83;;;;;;;2.29;89.17;96888.44;5059182;28;20207;-71
2021/04/24 03:36:45;;;;;;;18.37;6.87;;;;;;;2.36;89.62;96892.25;5058066;28;20290;-71
2021/04/24 03:39:12;;;;;;;16.10;6.77;;;;;;;2.29;88.44;96886.66;5058709;28;20402;-71
2021/04/24 03:41:38;;;;;;;14.60;6.33;;;;;;;2.28;86.92;96886.75;5055271;28;20204;-71
2021/04/24 03:44:05;;;;;;;12.97;6.57;;;;;;;2.14;88.60;96892.97;5058750;28;20688;-71
2021/04/24 03:46:31;;;;;;;20.73;7.10;;;;;;;2.07;89.84;96888.31;5057323;28;20214;-71
2021/04/24 03:48:57;;;;;;;14.47;6.53;;;;;;;1.97;88.72;96882.13;5058722;28;20219;-71
2021/04/24 03:51:23;;;;;;;15.27;6.47;;;;;;;2.04;88.35;96891.16;5058095;28;20567;-71
2021/04/24 03:53:49;;;;;;;15.10;6.60;;;;;;;1.99;88.43;96886.25;5057836;28;21190;-71
2021/04/24 03:56:15;;;;;;;20.13;6.17;;;;;;;2.03;88.64;96889.47;5057512;28;20203;-71
2021/04/24 03:58:41;;;;;;;17.03;6.60;;;;;;;2.01;88.09;96889.59;5058292;28;20246;-71
2021/04/24 04:01:08;;;;;;;15.67;6.77;;;;;;;2.02;88.52;96891.22;5059200;28;20223;-71
2021/04/24 04:03:34;;;;;;;13.83;6.27;;;;;;;2.05;88.29;96887.59;5057838;28;20211;-71
2021/04/24 04:06:00;;;;;;;15.47;6.57;;;;;;;2.09;88.42;96889.06;5057122;28;21276;-71
2021/04/24 04:08:26;;;;;;;13.10;6.20;;;;;;;2.14;89.67;96892.97;5058341;28;20247;-71
2021/04/24 04:10:52;;;;;;;15.93;6.63;;;;;;;2.05;89.78;96891.03;5058118;28;20665;-71
2021/04/24 04:13:19;;;;;;;14.13;6.67;;;;;;;2.13;89.93;96886.09;5057982;28;20208;-71
2021/04/24 04:15:45;;;;;;;19.57;6.57;;;;;;;2.13;88.63;96896.50;5057519;28;20203;-71
2021/04/24 04:18:13;;;;;;;16.30;6.20;;;;;;;2.08;87.70;96897.78;5057108;28;20589;-71
2021/04/24 04:20:41;;;;;;;22.37;6.60;;;;;;;2.13;88.11;96906.09;5057971;28;20208;-71
2021/04/24 04:23:07;;;;;;;16.43;6.50;;;;;;;2.05;89.15;96904.03;5057622;28;20204;-71
2021/04/24 04:25:33;;;;;;;18.53;6.43;;;;;;;2.05;87.76;96898.84;5057438;28;20212;-71
2021/04/24 04:27:59;;;;;;;22.27;6.17;;;;;;;1.96;87.68;96901.25;5057260;28;20289;-70
2021/04/24 04:30:26;;;;;;;15.73;6.73;;;;;;;1.98;88.03;96902.78;5058325;28;20208;-71
2021/04/24 04:32:52;;;;;;;14.07;6.27;;;;;;;1.96;89.29;96903.84;5057667;28;20219;-71
2021/04/24 04:35:19;;;;;;;16.80;6.90;;;;;;;1.84;90.14;96902.13;5056851;28;20223;-71
2021/04/24 04:37:46;;;;;;;16.60;6.90;;;;;;;1.82;90.82;96906.63;5057036;28;20220;-71
2021/04/24 04:40:13;;;;;;;20.87;7.37;;;;;;;1.86;92.02;96908.88;5057869;28;20244;-71
2021/04/24 04:42:40;;;;;;;16.60;6.90;;;;;;;2.00;92.33;96906.13;5055727;28;20199;-70
2021/04/24 04:45:08;;;;;;;17.87;7.43;;;;;;;2.11;91.38;96908.78;5056052;28;20207;-71
2021/04/24 04:47:35;;;;;;;17.17;7.50;;;;;;;2.13;89.87;96906.09;5056585;28;20215;-71
2021/04/24 04:50:01;;;;;;;15.90;6.17;;;;;;;2.12;89.67;96907.84;5057345;28;20266;-71
2021/04/24 04:52:27;;;;;;;17.30;7.30;;;;;;;2.19;89.71;96908.22;5057265;28;20204;-71
2021/04/24 04:54:53;;;;;;;15.60;6.60;;;;;;;2.22;89.42;96910.63;5056888;28;20223;-71
2021/04/24 04:57:19;;;;;;;17.27;6.67;;;;;;;2.27;89.14;96913.72;5056924;28;20223;-71
2021/04/24 04:59:45;;;;;;;13.93;6.60;;;;;;;2.29;88.90;96906.63;5056710;28;20676;-71
2021/04/24 05:02:11;;;;;;;14.13;6.47;;;;;;;2.30;89.84;96913.50;5057420;28;20232;-71
2021/04/24 05:04:38;;;;;;;14.23;7.10;;;;;;;2.45;89.43;96915.81;5056118;28;20689;-71
2021/04/24 05:07:04;;;;;;;18.03;6.93;;;;;;;2.52;88.96;96914.41;5056326;28;20225;-71
2021/04/24 05:09:30;;;;;;;18.87;6.70;;;;;;;2.58;88.03;96920.00;5056877;28;20200;-71
2021/04/24 05:11:56;;;;;;;14.37;6.37;;;;;;;2.46;90.17;96923.50;5056852;28;20686;-70
2021/04/24 05:14:22;;;;;;;16.40;7.73;;;;;;;2.48;91.19;96929.44;5057830;28;20208;-71
2021/04/24 05:16:49;;;;;;;18.73;7.30;;;;;;;2.53;92.66;96927.31;5055833;28;20213;-71
2021/04/24 05:19:14;;;;;;;21.73;7.50;;;;;;;2.67;92.24;96924.53;5056330;28;20223;-71
2021/04/24 05:21:42;;;;;;;14.77;8.03;;;;;;;2.73;91.48;96929.28;5057104;28;20300;-70
2021/04/24 05:24:09;;;;;;;19.83;8.07;;;;;;;2.82;92.04;96928.59;5056561;28;20204;-71
2021/04/24 05:26:35;;;;;;;23.27;8.10;;;;;;;2.72;92.44;96930.22;5055762;28;20210;-71
2021/04/24 05:29:01;;;;;;;17.43;7.53;;;;;;;2.78;95.12;96924.56;5056865;28;20216;-71
2021/04/24 05:31:27;;;;;;;16.63;7.53;;;;;;;2.85;95.21;96928.38;5056363;28;20200;-71
2021/04/24 05:33:54;;;;;;;16.57;7.73;;;;;;;2.91;95.13;96930.50;5056545;28;20204;-71
2021/04/24 05:36:20;;;;;;;21.27;8.07;;;;;;;3.07;96.21;96931.03;5055741;28;20673;-71
2021/04/24 05:38:48;;;;;;;18.30;7.93;;;;;;;3.21;96.37;96928.22;5056650;28;20232;-71
2021/04/24 05:41:20;;;;;;;23.40;7.70;;;;;;;3.41;95.13;96919.72;5053937;28;20211;-70
2021/04/24 05:43:46;;;;;;;21.50;8.97;;;;;;;3.62;93.59;96921.50;5056788;28;20291;-71
2021/04/24 05:46:12;;;;;;;22.67;7.77;;;;;;;3.71;94.19;96926.81;5055350;28;20701;-71
2021/04/24 05:48:38;;;;;;;16.67;8.73;;;;;;;3.85;95.97;96913.53;5056606;28;20306;-71
2021/04/24 05:51:04;;;;;;;22.30;9.13;;;;;;;4.02;93.78;96928.72;5056766;28;20977;-71
2021/04/24 05:53:30;;;;;;;20.00;8.73;;;;;;;4.23;92.82;96920.00;5056671;28;20670;-71
2021/04/24 05:55:57;;;;;;;23.07;9.27;;;;;;;4.28;93.11;96925.69;5055697;28;20200;-70
2021/04/24 05:58:23;;;;;;;24.07;10.70;;;;;;;4.49;91.50;96916.16;5056411;28;20224;-71
2021/04/24 06:00:49;;;;;;;28.73;10.70;;;;;;;4.61;90.76;96915.16;5056411;28;20215;-70
2021/04/24 06:03:16;;;;;;;21.27;9.80;;;;;;;4.81;90.28;96918.72;5056419;28;20205;-71
2021/04/24 06:05:42;;;;;;;20.60;9.70;;;;;;;4.96;89.96;96926.13;5056166;28;20246;-71
2021/04/24 06:08:08;;;;;;;28.60;10.37;;;;;;;5.16;87.75;96928.75;5056058;28;21211;-71
2021/04/24 06:10:35;;;;;;;19.57;9.27;;;;;;;5.34;87.58;96926.41;5056763;28;20208;-71
2021/04/24 06:13:02;;;;;;;23.57;10.27;;;;;;;5.36;88.85;96925.31;5056203;28;20196;-71
2021/04/24 06:15:28;;;;;;;24.07;10.17;;;;;;;5.43;90.85;96916.84;5055885;28;20196;-71
2021/04/24 06:17:54;;;;;;;21.50;10.50;;;;;;;5.57;92.30;96923.50;5059957;28;20655;-70
2021/04/24 06:20:20;;;;;;;25.10;10.00;;;;;;;5.73;91.47;96919.44;5060016;28;21036;-71
2021/04/24 06:22:46;;;;;;;24.50;9.43;;;;;;;5.65;89.41;96921.88;5060228;28;20208;-70
2021/04/24 06:25:14;;;;;;;21.07;9.03;;;;;;;5.63;88.05;96920.38;5058791;28;20204;-71
2021/04/24 06:27:41;;;;;;;19.93;8.90;;;;;;;5.77;87.34;96922.66;5059632;28;20244;-71
2021/04/24 06:30:10;;;;;;;25.23;8.60;;;;;;;5.86;86.44;96922.69;5060225;28;20200;-71
2021/04/24 06:32:36;;;;;;;19.70;8.77;;;;;;;5.91;86.54;96923.13;5059728;28;20192;-71
2021/04/24 06:35:03;;;;;;;22.27;8.33;;;;;;;6.04;85.73;96917.66;5058043;28;20224;-71
2021/04/24 06:37:29;;;;;;;26.77;9.07;;;;;;;6.17;84.95;96914.69;5059725;28;20702;-71
2021/04/24 06:39:55;;;;;;;18.50;8.47;;;;;;;6.31;85.18;96916.91;5060476;28;20323;-71
2021/04/24 06:42:21;;;;;;;26.17;9.40;;;;;;;6.44;83.68;96914.03;5055944;28;21247;-71
2021/04/24 06:44:47;;;;;;;17.77;8.33;;;;;;;6.65;86.33;96911.16;5059100;28;20270;-71
2021/04/24 06:47:14;;;;;;;20.57;8.57;;;;;;;6.76;84.14;96912.84;5058069;28;20334;-71
2021/04/24 06:49:40;;;;;;;16.30;7.93;;;;;;;6.94;83.61;96905.94;5058745;28;20262;-71
2021/04/24 06:52:07;;;;;;;21.17;8.80;;;;;;;7.11;82.54;96897.38;5058474;28;20196;-71
2021/04/24 06:54:33;;;;;;;20.57;7.97;;;;;;;7.32;80.27;96904.91;5059489;28;20200;-71
2021/04/24 06:56:59;;;;;;;21.63;7.77;;;;;;;7.52;79.20;96908.31;5058668;28;20204;-71
2021/04/24 06:59:25;;;;;;;18.03;8.03;;;;;;;7.63;79.87;96905.53;5058737;28;20239;-71
2021/04/24 07:01:51;;;;;;;16.43;7.77;;;;;;;7.78;78.61;96904.06;5059861;28;20200;-71
2021/04/24 07:04:18;;;;;;;22.13;7.93;;;;;;;7.89;76.66;96908.19;5059238;28;20287;-71
2021/04/24 07:06:45;;;;;;;20.07;7.60;;;;;;;8.01;74.99;96906.19;5058802;28;20212;-71
2021/04/24 07:09:11;;;;;;;15.67;7.27;;;;;;;8.22;75.21;96907.66;5058988;28;20277;-71
2021/04/24 07:11:37;;;;;;;16.50;7.53;;;;;;;8.43;77.06;96908.22;5059415;28;20686;-71
2021/04/24 07:14:04;;;;;;;20.47;7.47;;;;;;;8.46;70.75;96902.66;5059103;28;20204;-71
2021/04/24 07:16:30;;;;;;;15.23;6.93;;;;;;;8.63;70.52;96900.06;5058276;28;20197;-71
2021/04/24 07:18:56;;;;;;;16.97;7.13;;;;;;;8.87;72.78;96902.06;5059075;28;20228;-71
2021/04/24 07:21:23;;;;;;;20.53;7.03;;;;;;;9.00;70.99;96897.25;5059441;28;20205;-71
2021/04/24 07:23:49;;;;;;;16.77;7.53;;;;;;;9.19;67.21;96897.94;5058440;28;20215;-71
2021/04/24 07:26:16;;;;;;;16.60;7.37;;;;;;;9.34;68.11;96886.72;5058393;28;20200;-71
2021/04/24 07:28:42;;;;;;;16.20;7.60;;;;;;;9.47;68.19;96892.38;5057215;28;20232;-71
2021/04/24 07:31:09;;;;;;;17.27;7.73;;;;;;;9.51;66.82;96892.88;5058472;28;20211;-71
2021/04/24 07:33:35;;;;;;;16.60;7.53;;;;;;;9.68;68.93;96889.41;5058611;28;20263;-72
2021/04/24 07:36:02;;;;;;;16.83;7.77;;;;;;;9.67;64.42;96887.75;5058021;28;20208;-71
2021/04/24 07:38:28;;;;;;;17.73;7.73;;;;;;;9.69;65.05;96892.69;5058009;28;20220;-71
2021/04/24 07:40:54;;;;;;;17.53;7.67;;;;;;;9.80;64.69;96888.94;5058809;28;20204;-71
2021/04/24 07:43:20;;;;;;;16.83;7.97;;;;;;;9.96;64.37;96895.16;5056401;28;20245;-71
2021/04/24 07:45:46;;;;;;;17.17;7.60;;;;;;;10.03;65.33;96890.94;5057065;28;21105;-71
2021/04/24 07:48:12;;;;;;;15.30;7.60;;;;;;;10.14;64.56;96893.25;5058442;28;20816;-72
2021/04/24 07:50:39;;;;;;;14.37;7.03;;;;;;;10.24;64.32;96893.97;5059020;28;20236;-72
2021/04/24 07:53:05;;;;;;;17.83;7.50;;;;;;;10.40;65.27;96894.84;5058187;28;20204;-72
2021/04/24 07:55:32;;;;;;;18.37;7.67;;;;;;;10.51;62.66;96893.72;5057440;28;20201;-72
2021/04/24 07:57:59;;;;;;;19.67;8.10;;;;;;;10.63;62.47;96888.00;5058506;28;20758;-71
2021/04/24 08:00:26;;;;;;;18.30;8.90;;;;;;;10.76;65.05;96890.19;5057977;28;20240;-72
2021/04/24 08:02:52;;;;;;;15.83;7.93;;;;;;;10.89;63.58;96887.88;5058357;28;20220;-71
2021/04/24 08:05:18;;;;;;;17.57;7.83;;;;;;;11.05;61.49;96889.53;5057363;28;20585;-71
2021/04/24 08:07:44;;;;;;;18.60;7.60;;;;;;;11.15;61.15;96886.72;5058233;28;20263;-71
2021/04/24 08:10:11;;;;;;;16.03;7.50;;;;;;;11.20;61.64;96890.53;5057612;28;20266;-72
2021/04/24 08:12:38;;;;;;;21.17;8.07;;;;;;;11.28;60.02;96893.16;5058453;28;20209;-71
2021/04/24 08:15:06;;;;;;;16.53;7.83;;;;;;;11.40;59.57;96891.84;5056725;28;20204;-71
2021/04/24 08:17:32;;;;;;;17.40;7.97;;;;;;;11.53;63.33;96896.66;5057477;28;20726;-71
2021/04/24 08:19:59;;;;;;;18.25;8.45;;;;;;;11.57;60.22;96896.97;5057908;28;20220;-71
2021/04/24 08:22:25;;;;;;;20.20;8.47;;;;;;;11.63;60.35;96892.81;5057699;28;20211;-71
2021/04/24 08:24:51;;;;;;;16.67;8.00;;;;;;;11.72;60.67;96887.38;5057265;28;20223;-71
2021/04/24 08:27:17;;;;;;;19.07;8.40;;;;;;;11.85;61.06;96889.47;5057358;28;20220;-71
2021/04/24 08:29:44;;;;;;;20.13;7.85;;;;;;;11.84;61.58;96890.50;5058211;28;20500;-71
2021/04/24 08:32:10;;;;;;;15.00;7.77;;;;;;;11.95;60.04;96888.31;5057659;28;20207;-72
2021/04/24 08:34:36;;;;;;;17.23;8.13;;;;;;;11.97;57.73;96888.97;5057587;28;20196;-71
2021/04/24 08:37:03;;;;;;;23.25;7.55;;;;;;;12.02;55.35;96883.19;5056592;28;20224;-72
2021/04/24 08:39:29;;;;;;;20.92;8.18;;;;;;;12.23;56.57;96889.53;5056909;28;20781;-72
2021/04/24 08:41:56;;;;;;;19.42;7.53;;;;;;;12.38;54.36;96885.97;5054747;28;20208;-71
2021/04/24 08:44:23;;;;;;;14.73;7.07;;;;;;;12.51;51.63;96885.44;5057791;28;20208;-72
2021/04/24 08:46:51;;;;;;;20.63;7.85;;;;;;;12.57;53.33;96890.84;5056152;28;20200;-72
2021/04/24 08:49:19;;;;;;;16.48;7.55;;;;;;;12.68;51.15;96881.69;5057233;28;20205;-71
2021/04/24 08:51:45;;;;;;;13.80;6.82;;;;;;;12.83;53.02;96880.81;5057838;28;20204;-72
2021/04/24 08:54:12;;;;;;;15.23;7.25;;;;;;;13.02;55.79;96875.91;5056374;28;20193;-72
2021/04/24 08:56:38;;;;;;;16.02;7.32;;;;;;;13.21;51.68;96874.59;5055974;28;20211;-72
2021/04/24 08:59:04;;;;;;;15.32;6.88;;;;;;;13.35;51.59;96871.16;5056862;28;20597;-71
2021/04/24 09:01:32;;;;;;;17.17;6.88;;;;;;;13.64;48.64;96864.09;5056452;28;20208;-72
2021/04/24 09:04:00;;;;;;;16.83;7.13;;;;;;;13.88;49.08;96869.16;5056895;28;20205;-72
2021/04/24 09:06:26;;;;;;;21.83;7.22;;;;;;;13.49;47.34;96866.72;5055358;28;20201;-72
2021/04/24 09:08:54;;;;;;;16.15;7.50;;;;;;;13.54;49.77;96855.59;5056537;28;20314;-71
2021/04/24 09:11:20;;;;;;;13.63;6.65;;;;;;;13.72;49.47;96859.56;5055677;28;20378;-71
2021/04/24 09:14:01;;;;;;;16.60;7.47;;;;;;;13.98;47.15;96850.13;5056807;28;20227;-71
2021/04/24 09:16:28;;;;;;;12.55;6.88;;;;;;;13.39;43.84;96846.81;5055603;28;20192;-71
2021/04/24 09:18:55;;;;;;;16.55;6.72;;;;;;;13.57;45.47;96850.75;5056881;28;20235;-72
2021/04/24 09:21:23;;;;;;;16.85;6.82;;;;;;;13.82;43.98;96849.50;5056395;28;20219;-72
2021/04/24 09:23:49;;;;;;;15.70;6.95;;;;;;;13.88;45.49;96851.44;5056931;28;20205;-72
2021/04/24 09:26:17;;;;;;;16.80;6.80;;;;;;;13.89;43.55;96842.47;5056038;28;20918;-71
2021/04/24 09:28:46;;;;;;;15.73;7.18;;;;;;;13.88;42.26;96843.47;5056943;28;20228;-71
2021/04/24 09:31:13;;;;;;;15.75;7.07;;;;;;;14.30;41.32;96839.19;5056493;28;21025;-71
2021/04/24 09:33:41;;;;;;;15.27;6.13;;;;;;;14.54;42.16;96830.91;5056889;28;20215;-72
2021/04/24 09:36:08;;;;;;;11.80;5.80;;;;;;;14.73;44.28;96836.44;5056210;28;20231;-72
2021/04/24 09:38:37;;;;;;;16.50;6.78;;;;;;;14.90;37.92;96835.16;5055926;28;20232;-72
2021/04/24 09:41:14;;;;;;;13.93;6.53;;;;;;;14.78;38.75;96823.44;5057200;28;20209;-71
2021/04/24 09:44:02;;;;;;;12.15;6.55;;;;;;;14.96;39.08;96833.63;5056429;28;20204;-71
2021/04/24 09:46:32;;;;;;;14.75;6.50;;;;;;;14.90;38.48;96827.22;5055563;28;20289;-72
2021/04/24 09:49:08;;;;;;;12.38;6.05;;;;;;;15.11;40.11;96839.66;5056173;28;20220;-72
2021/04/24 09:51:39;;;;;;;14.13;6.10;;;;;;;14.99;37.62;96835.88;5058796;28;20980;-72
2021/04/24 09:54:08;;;;;;;11.98;6.05;;;;;;;15.19;42.40;96821.78;5060418;28;20204;-72
2021/04/24 09:56:34;;;;;;;14.07;6.28;;;;;;;15.27;39.89;96829.63;5059577;28;20192;-72
2021/04/24 09:59:03;;;;;;;14.13;6.60;;;;;;;15.05;38.25;96817.38;5060607;28;20227;-72
2021/04/24 10:01:31;;;;;;;14.27;6.55;;;;;;;15.18;37.88;96819.31;5060321;28;20197;-72
2021/04/24 10:03:58;;;;;;;14.02;6.53;;;;;;;15.31;41.55;96812.31;5060684;28;20204;-73
2021/04/24 10:06:27;;;;;;;14.45;6.18;;;;;;;15.18;39.78;96800.75;5059942;28;20257;-71
2021/04/24 10:09:19;;;;;;;12.05;6.03;;;;;;;15.25;42.30;96807.78;5059838;28;20793;-71
2021/04/24 10:11:48;;;;;;;12.82;6.22;;;;;;;15.13;38.66;96801.28;5060199;28;20216;-72
2021/04/24 10:14:26;;;;;;;18.23;7.25;;;;;;;15.20;38.03;96796.88;5060968;28;20819;-72
2021/04/24 10:16:53;;;;;;;14.98;6.43;;;;;;;15.46;40.06;96802.44;5059805;28;20228;-72
2021/04/24 10:19:19;;;;;;;12.82;6.40;;;;;;;15.93;43.71;96793.53;5059164;28;20399;-71
2021/04/24 10:21:45;;;;;;;14.35;6.70;;;;;;;15.84;42.67;96798.41;5060314;28;20299;-72
2021/04/24 10:24:12;;;;;;;15.88;7.18;;;;;;;15.96;40.20;96792.31;5060555;28;20555;-71
2021/04/24 10:26:41;;;;;;;17.65;7.20;;;;;;;16.23;42.06;96797.56;5058820;28;20207;-72
2021/04/24 10:29:08;;;;;;;12.85;6.53;;;;;;;16.88;40.91;96787.16;5059308;28;20207;-72
2021/04/24 10:31:34;;;;;;;18.92;7.03;;;;;;;16.66;37.31;96791.00;5060491;28;20200;-72
2021/04/24 10:34:04;;;;;;;14.40;6.63;;;;;;;16.57;38.12;96785.06;5059479;28;20210;-72
2021/04/24 10:36:30;;;;;;;14.50;6.45;;;;;;;16.67;36.76;96784.66;5059412;28;20824;-72
2021/04/24 10:38:57;;;;;;;11.45;6.47;;;;;;;16.16;34.86;96785.25;5058950;28;20224;-72
2021/04/24 10:41:30;;;;;;;14.88;6.35;;;;;;;16.24;34.64;96780.59;5055482;28;20779;-72
2021/04/24 10:44:01;;;;;;;12.35;6.78;;;;;;;16.43;34.51;96779.88;5059229;28;20205;-71
2021/04/24 10:46:30;;;;;;;13.07;6.47;;;;;;;16.41;36.82;96781.94;5058756;28;20207;-71
2021/04/24 10:49:20;;;;;;;20.02;7.30;;;;;;;16.20;39.31;96779.34;5059566;28;20850;-71
2021/04/24 10:51:58;;;;;;;19.70;6.35;;;;;;;16.21;37.38;96773.00;5059982;28;20215;-72
2021/04/24 10:54:25;;;;;;;15.60;6.88;;;;;;;16.29;37.47;96775.53;5059681;28;20193;-71
2021/04/24 10:56:51;;;;;;;11.30;6.35;;;;;;;16.61;38.18;96767.66;5058596;28;20209;-71
2021/04/24 10:59:23;;;;;;;14.27;6.18;;;;;;;16.93;42.55;96769.56;5059415;28;20586;-72
2021/04/24 11:02:13;;;;;;;16.17;7.30;;;;;;;17.03;38.36;96761.16;5058452;28;20212;-71
2021/04/24 11:04:44;;;;;;;14.32;6.63;;;;;;;17.12;36.40;96764.25;5059226;28;20246;-70
2021/04/24 11:07:28;;;;;;;13.40;6.80;;;;;;;17.20;35.80;96758.72;5058603;28;20603;-70
2021/04/24 11:10:25;;;;;;;14.40;6.38;;;;;;;17.61;37.94;96756.66;5059266;28;20216;-70
2021/04/24 11:12:51;;;;;;;12.38;6.07;;;;;;;17.88;35.75;96752.91;5059169;28;20220;-71
2021/04/24 11:15:20;;;;;;;12.15;6.20;;;;;;;17.77;38.71;96751.72;5058692;28;20200;-70
2021/04/24 11:17:48;;;;;;;14.50;6.80;;;;;;;18.22;35.86;96753.44;5059495;28;20250;-69
2021/04/24 11:20:51;;;;;;;15.25;6.90;;;;;;;18.26;35.92;96745.84;5058155;28;20216;-69
2021/04/24 11:23:51;;;;;;;10.25;6.00;;;;;;;18.73;32.79;96741.66;5058720;28;20200;-71
2021/04/24 11:26:47;;;;;;;13.63;5.97;;;;;;;18.90;28.04;96736.63;4957416;28;20329;-70
2021/04/24 11:29:14;;;;;;;9.55;5.57;;;;;;;18.21;29.99;96727.78;4951359;28;20343;-70
2021/04/24 11:32:19;;;;;;;12.40;5.50;;;;;;;18.22;30.19;96728.63;5022441;28;20677;-70
2021/04/24 11:34:47;;;;;;;9.55;5.18;;;;;;;18.23;27.99;96728.41;4957046;28;20358;-70